V/Λ SELECT: Month and Year
OR > Month
Monthly Climatological Summary for Mar 2010
Name: www.delerius-weather.com City: Winterton State: North Lincolnshire
Elevation: 42 m Lat: N 53° 39' 10" Lon: W 000° 36' 49"
Temperature (°C), Rain (mm), Wind Speed (mph)
Heat Cool Avg
Mean Deg Deg Wind Dom
Day Temp High Time Low Time Days Days Rain Speed High Time Dir
----------------------------------------------------------------------------------
1 4.8 7.1 21:00 -0.5 02:15 14.4 0.0 0.4 3.2 18.0 13:45 NW
2 3.6 6.9 21:00 -1.1 02:15 14.4 0.0 0.0 2.1 14.0 11:45 WNW
3 2.9 5.2 21:00 -1.5 02:15 14.4 0.0 0.0 1.7 11.0 13:00 ENE
4 2.5 5.7 21:00 -1.2 02:15 14.4 0.0 0.0 2.4 13.0 10:30 NW
5 5.9 8.6 21:00 -2.2 02:15 14.4 0.0 0.4 7.2 22.0 14:45 NW
6 3.6 5.1 21:00 0.5 02:15 14.4 0.0 1.8 4.4 18.0 00:30 SE
7 1.8 3.8 21:00 -3.3 02:15 14.4 0.0 0.0 1.3 9.0 11:00 SE
8 1.1 5.1 21:00 -4.7 02:15 14.4 0.0 0.0 3.0 21.0 17:45 NE
9 5.3 6.7 21:00 2.6 02:15 14.4 0.0 0.0 3.7 18.0 12:15 ENE
10 4.1 5.9 21:00 2.8 02:15 14.4 0.0 0.0 3.8 15.0 12:15 NW
11 3.8 5.8 21:00 -1.1 02:15 14.4 0.0 0.2 2.3 12.0 11:45 W
12 4.2 7.5 21:00 1.8 02:15 14.4 0.0 1.0 7.2 26.0 18:00 NW
13 6.8 10.7 21:00 3.3 02:15 14.4 0.0 0.0 6.0 19.0 10:30 W
14 7.8 11.0 21:00 4.4 02:15 14.4 0.0 1.8 7.0 25.0 10:00 W
15 7.4 10.6 21:00 4.1 02:15 14.4 0.0 0.0 11.9 31.0 10:30 WNW
16 6.8 11.2 21:00 0.7 02:15 14.4 0.0 0.0 2.9 14.0 11:45 SSW
17 8.8 13.6 21:00 2.8 02:15 14.4 0.0 0.0 6.7 18.0 10:45 SW
18 10.2 16.1 21:00 5.5 02:15 14.4 0.0 0.0 7.1 30.0 20:45 SW
19 10.3 12.9 21:00 7.8 02:15 14.4 0.0 5.2 7.1 27.0 11:15 SE
20 9.8 14.2 21:00 6.2 02:15 14.4 0.0 5.8 5.9 22.0 16:45 NNW
21 7.1 11.9 21:00 2.2 02:15 14.4 0.0 0.0 4.9 18.0 11:45 SSW
22 8.3 11.8 21:00 5.4 02:15 14.4 0.0 0.6 9.6 32.0 20:00 SW
23 7.3 12.6 21:00 0.6 02:15 14.4 0.0 0.0 4.4 20.0 16:30 S
24 10.7 15.2 21:00 6.7 02:15 14.4 0.0 0.2 4.1 18.0 01:15 SE
25 10.9 15.5 21:00 7.1 02:15 14.4 0.0 2.6 4.7 25.0 22:45 SSW
26 8.9 13.9 21:00 5.8 02:15 14.4 0.0 0.0 12.9 33.0 04:00 SSW
27 9.0 13.2 21:00 4.6 02:15 14.4 0.0 0.0 8.5 29.0 14:00 WSW
28 7.8 13.0 21:00 3.9 02:15 14.4 0.0 0.0 12.4 39.0 14:15 W
29 6.4 8.8 21:00 4.2 02:15 14.4 0.0 2.8 4.4 22.0 23:00 SE
30 7.1 9.2 21:00 5.2 02:15 14.4 0.0 3.2 5.8 28.0 21:00 SSW
31 5.4 8.7 21:00 1.8 02:15 14.4 0.0 0.4 9.5 28.0 17:30 WSW
----------------------------------------------------------------------------------
6.5 16.1 1 -4.7 1 446.4 0.0 26.4 5.7 39.0 28 WSW
Max >= 27.0: 0
Max <= 0.0: 0
Min <= 0.0: 0
Min <= -18.0: 0
Max Rain: 5.8 on day 20
Days of Rain: 14 (>= 0.2 mm) 5 (>= 2.0 mm) 0 (>= 20.0 mm)
Heat Base: 18.3 Cool Base: 18.3 Method: Integration